Time;durP1;ratioP1;P1;durP2;ratioP2;P2;SDS_P1;SDS_P2;PMS_P1;PMS_P2;Temp;Humidity;BMP_temperature;BMP_pressure;BME280_temperature;BME280_humidity;BME280_pressure;Samples;Min_cycle;Max_cycle;Signal;HPM_P1;HPM_P2
2022/07/19 00:01:28;;;;;;;5.47;2.40;;;21.70;80.80;;;;;;5042611;28;20033;-71
2022/07/19 00:03:56;;;;;;;4.95;2.40;;;21.50;84.00;;;;;;5041436;28;20123;-73
2022/07/19 00:06:22;;;;;;;5.97;2.47;;;21.50;88.20;;;;;;5040801;28;20040;-70
2022/07/19 00:08:48;;;;;;;5.43;2.40;;;21.40;90.60;;;;;;5033230;28;20033;-71
2022/07/19 00:11:14;;;;;;;6.93;2.75;;;21.30;92.00;;;;;;5044319;28;20033;-71
2022/07/19 00:13:39;;;;;;;5.82;2.50;;;21.20;92.50;;;;;;5043103;28;20032;-71
2022/07/19 00:16:05;;;;;;;5.18;2.40;;;21.20;92.50;;;;;;5038599;28;20067;-71
2022/07/19 00:18:31;;;;;;;4.47;2.30;;;21.10;92.80;;;;;;5049480;28;20041;-73
2022/07/19 00:20:57;;;;;;;4.47;2.50;;;21.10;93.10;;;;;;5046600;28;20496;-70
2022/07/19 00:23:23;;;;;;;6.88;2.65;;;21.00;93.60;;;;;;5048125;28;20045;-72
2022/07/19 00:25:48;;;;;;;5.13;2.30;;;20.90;94.50;;;;;;5032476;28;20052;-71
2022/07/19 00:28:14;;;;;;;7.18;2.40;;;20.80;95.00;;;;;;5044159;28;20033;-70
2022/07/19 00:30:40;;;;;;;4.35;2.50;;;20.70;95.70;;;;;;5046528;28;20036;-71
2022/07/19 00:33:08;;;;;;;4.57;2.53;;;20.70;96.90;;;;;;5046851;28;20040;-72
2022/07/19 00:35:35;;;;;;;5.30;2.53;;;20.60;96.60;;;;;;5046676;28;20060;-70
2022/07/19 00:38:09;;;;;;;6.05;2.60;;;20.60;97.60;;;;;;5045867;28;20120;-71
2022/07/19 00:40:36;;;;;;;3.70;2.20;;;20.60;96.70;;;;;;5041405;28;20035;-71
2022/07/19 00:43:03;;;;;;;5.35;2.63;;;20.50;97.10;;;;;;5035808;28;20039;-73
2022/07/19 00:45:29;;;;;;;5.32;2.67;;;20.50;96.60;;;;;;5049578;28;20037;-71
2022/07/19 00:47:54;;;;;;;4.68;2.63;;;20.50;96.00;;;;;;5040480;28;20040;-73
2022/07/19 00:50:21;;;;;;;3.90;2.28;;;20.50;96.10;;;;;;5047177;28;20067;-72
2022/07/19 00:52:51;;;;;;;5.18;2.50;;;20.50;97.00;;;;;;5045957;28;20083;-71
2022/07/19 00:55:20;;;;;;;6.70;2.60;;;20.50;96.90;;;;;;5036020;28;20761;-71
2022/07/19 00:57:47;;;;;;;4.28;2.50;;;20.40;98.00;;;;;;5037055;28;20067;-71
2022/07/19 01:00:14;;;;;;;6.60;2.65;;;20.40;99.00;;;;;;5041524;28;20064;-72
2022/07/19 01:02:41;;;;;;;7.43;2.88;;;20.40;97.90;;;;;;5046080;28;20091;-72
2022/07/19 01:05:12;;;;;;;6.15;2.63;;;20.40;98.50;;;;;;5046513;28;20029;-73
2022/07/19 01:07:40;;;;;;;4.78;2.80;;;20.40;98.10;;;;;;5045611;28;20044;-70
2022/07/19 01:10:08;;;;;;;3.90;2.40;;;20.30;97.90;;;;;;5033024;28;20627;-71
2022/07/19 01:12:34;;;;;;;6.65;2.80;;;20.20;97.50;;;;;;5040274;28;20045;-70
2022/07/19 01:15:00;;;;;;;4.80;2.30;;;20.10;97.30;;;;;;5040801;28;20033;-70
2022/07/19 01:17:26;;;;;;;6.60;2.88;;;20.10;98.00;;;;;;5045838;28;20090;-72
2022/07/19 01:19:53;;;;;;;6.70;2.83;;;20.00;98.00;;;;;;5045748;28;20533;-70
2022/07/19 01:22:18;;;;;;;6.38;3.00;;;20.00;96.40;;;;;;5046953;28;20045;-72
2022/07/19 01:24:44;;;;;;;6.60;2.83;;;20.10;95.10;;;;;;5032691;28;20049;-70
2022/07/19 01:27:10;;;;;;;8.90;3.05;;;20.20;95.00;;;;;;5028807;28;20044;-71
2022/07/19 01:29:36;;;;;;;5.80;2.78;;;20.20;94.10;;;;;;5045807;28;20041;-71
2022/07/19 01:32:04;;;;;;;6.10;2.72;;;20.20;93.30;;;;;;5046891;28;20068;-71
2022/07/19 01:34:30;;;;;;;5.70;3.08;;;20.20;92.00;;;;;;5041345;28;20028;-71
2022/07/19 01:36:55;;;;;;;6.90;2.90;;;20.30;91.40;;;;;;5046023;28;20039;-73
2022/07/19 01:39:21;;;;;;;7.32;3.10;;;20.30;90.70;;;;;;5047741;28;20071;-73
2022/07/19 01:41:47;;;;;;;5.75;2.75;;;20.40;90.40;;;;;;5039783;28;20175;-71
2022/07/19 01:44:13;;;;;;;5.60;2.72;;;20.40;90.10;;;;;;5034785;28;20029;-72
2022/07/19 01:46:38;;;;;;;5.38;2.90;;;20.40;89.30;;;;;;5041229;28;20057;-70
2022/07/19 01:49:04;;;;;;;6.07;2.75;;;20.60;88.50;;;;;;5029613;28;20042;-71
2022/07/19 01:51:30;;;;;;;10.73;3.30;;;20.60;88.30;;;;;;5041130;28;20037;-71
2022/07/19 01:53:56;;;;;;;6.28;2.97;;;20.60;88.30;;;;;;5044903;28;20043;-71
2022/07/19 01:56:21;;;;;;;6.30;2.72;;;20.60;88.40;;;;;;5043575;28;20441;-71
2022/07/19 01:58:47;;;;;;;7.43;2.78;;;20.70;88.40;;;;;;5032620;28;20074;-71
2022/07/19 02:01:13;;;;;;;6.15;2.83;;;20.70;88.70;;;;;;5045256;28;20068;-71
2022/07/19 02:03:38;;;;;;;7.40;2.80;;;20.80;89.20;;;;;;5038550;28;20052;-71
2022/07/19 02:06:04;;;;;;;9.15;2.65;;;20.80;90.20;;;;;;5038472;28;20025;-71
2022/07/19 02:08:30;;;;;;;5.80;2.63;;;20.80;90.60;;;;;;5043072;28;20375;-71
2022/07/19 02:10:56;;;;;;;5.78;2.60;;;20.80;91.20;;;;;;5044590;28;20036;-71
2022/07/19 02:13:22;;;;;;;7.25;2.60;;;20.80;92.10;;;;;;5043568;28;20060;-73
2022/07/19 02:15:47;;;;;;;8.35;2.90;;;20.80;92.60;;;;;;5041350;28;20101;-72
2022/07/19 02:18:14;;;;;;;7.90;3.13;;;20.90;92.90;;;;;;5030911;28;20124;-72
2022/07/19 02:20:40;;;;;;;6.40;3.25;;;20.90;93.20;;;;;;5038252;28;20025;-70
2022/07/19 02:23:06;;;;;;;8.27;2.80;;;21.00;93.50;;;;;;5043966;28;20064;-70
2022/07/19 02:25:32;;;;;;;6.95;3.17;;;21.00;93.60;;;;;;5034167;28;20091;-71
2022/07/19 02:27:57;;;;;;;6.03;3.00;;;21.00;94.00;;;;;;5044752;28;20068;-70
2022/07/19 02:30:23;;;;;;;8.50;3.08;;;21.00;94.10;;;;;;5035831;28;20036;-69
2022/07/19 02:32:49;;;;;;;8.88;3.00;;;21.00;94.40;;;;;;5040358;28;20068;-70
2022/07/19 02:35:14;;;;;;;9.45;3.00;;;20.90;94.60;;;;;;5032979;28;20029;-72
2022/07/19 02:37:41;;;;;;;8.88;3.00;;;21.00;94.60;;;;;;5044293;28;20037;-70
2022/07/19 02:40:08;;;;;;;10.00;3.30;;;20.90;94.60;;;;;;5045095;28;20466;-70
2022/07/19 02:42:34;;;;;;;7.18;2.90;;;20.90;95.30;;;;;;5044173;28;20049;-70
2022/07/19 02:45:00;;;;;;;4.80;2.78;;;20.90;95.30;;;;;;5039331;28;20033;-71
2022/07/19 02:47:25;;;;;;;8.32;3.17;;;20.90;95.30;;;;;;5043278;28;20060;-70
2022/07/19 02:49:51;;;;;;;6.65;3.00;;;20.90;95.50;;;;;;5044043;28;20033;-70
2022/07/19 02:52:17;;;;;;;9.25;2.70;;;20.90;95.80;;;;;;5028794;28;20041;-70
2022/07/19 02:54:43;;;;;;;8.15;3.17;;;20.80;95.80;;;;;;5044113;28;20072;-71
2022/07/19 02:57:08;;;;;;;9.98;3.25;;;20.80;95.70;;;;;;5028956;28;20061;-72
2022/07/19 02:59:34;;;;;;;7.15;3.10;;;20.80;96.10;;;;;;5035041;28;20470;-73
2022/07/19 03:02:00;;;;;;;6.30;2.70;;;20.70;96.00;;;;;;5041986;28;20044;-73
2022/07/19 03:04:25;;;;;;;8.02;2.78;;;20.70;95.90;;;;;;5045892;28;20067;-70
2022/07/19 03:06:51;;;;;;;6.13;2.83;;;20.70;95.80;;;;;;5046320;28;20142;-71
2022/07/19 03:09:17;;;;;;;6.13;3.00;;;20.70;95.70;;;;;;5041387;28;20029;-71
2022/07/19 03:11:42;;;;;;;8.25;3.00;;;20.70;95.60;;;;;;5046402;28;20045;-71
2022/07/19 03:14:08;;;;;;;7.38;3.00;;;20.70;95.70;;;;;;5035551;28;20471;-70
2022/07/19 03:16:34;;;;;;;8.32;3.10;;;20.80;95.40;;;;;;5041662;28;20059;-71
2022/07/19 03:18:59;;;;;;;8.98;3.13;;;20.70;95.40;;;;;;5038348;28;20029;-71
2022/07/19 03:21:25;;;;;;;7.57;2.83;;;20.70;95.30;;;;;;5044875;28;20389;-70
2022/07/19 03:23:51;;;;;;;11.52;3.50;;;20.70;95.40;;;;;;5033746;28;20033;-70
2022/07/19 03:26:16;;;;;;;6.18;3.10;;;20.70;95.50;;;;;;5066529;28;20024;-71
2022/07/19 03:28:42;;;;;;;8.48;3.05;;;20.60;95.50;;;;;;5035741;28;20119;-70
2022/07/19 03:31:09;;;;;;;8.93;3.20;;;20.60;95.30;;;;;;5060018;28;20033;-70
2022/07/19 03:33:35;;;;;;;7.53;2.67;;;20.50;95.20;;;;;;5045486;28;20049;-70
2022/07/19 03:36:01;;;;;;;8.93;2.92;;;20.50;95.30;;;;;;5048451;28;20036;-71
2022/07/19 03:38:26;;;;;;;7.65;3.25;;;20.50;95.30;;;;;;5042365;28;20171;-70
2022/07/19 03:40:52;;;;;;;9.35;3.20;;;20.40;95.40;;;;;;5039613;28;20033;-71
2022/07/19 03:43:18;;;;;;;6.43;3.00;;;20.40;95.30;;;;;;5046535;28;20037;-69
2022/07/19 03:45:45;;;;;;;7.07;2.88;;;20.40;95.30;;;;;;5027029;28;20036;-70
2022/07/19 03:48:11;;;;;;;10.27;3.20;;;20.40;95.60;;;;;;5046710;28;20048;-70
2022/07/19 03:50:38;;;;;;;9.38;3.22;;;20.30;95.60;;;;;;5033776;28;20491;-71
2022/07/19 03:53:03;;;;;;;10.27;3.08;;;20.30;95.80;;;;;;5049747;28;20045;-70
2022/07/19 03:55:29;;;;;;;7.63;2.80;;;20.20;95.70;;;;;;5057098;28;20036;-70
2022/07/19 03:57:55;;;;;;;10.00;2.95;;;20.20;95.80;;;;;;5030853;28;20041;-69
2022/07/19 04:00:21;;;;;;;7.18;3.22;;;20.20;96.20;;;;;;5035814;28;20028;-71
2022/07/19 04:02:47;;;;;;;8.77;3.15;;;20.20;96.70;;;;;;5045266;28;20119;-71
2022/07/19 04:05:12;;;;;;;9.23;2.90;;;20.10;96.90;;;;;;5036811;28;20403;-70
2022/07/19 04:07:38;;;;;;;5.82;2.80;;;20.10;97.10;;;;;;5050764;28;20039;-70
2022/07/19 04:10:05;;;;;;;5.35;2.60;;;20.00;97.40;;;;;;5051671;28;20486;-70
2022/07/19 04:12:30;;;;;;;6.45;2.67;;;20.00;97.60;;;;;;5051655;28;20170;-69
2022/07/19 04:14:56;;;;;;;8.60;3.15;;;19.90;97.70;;;;;;5068381;28;20116;-70
2022/07/19 04:17:23;;;;;;;7.10;3.00;;;19.90;97.80;;;;;;5042631;28;20095;-70
2022/07/19 04:19:49;;;;;;;5.45;2.90;;;19.90;97.90;;;;;;5033206;28;20034;-70
2022/07/19 04:22:15;;;;;;;7.97;2.97;;;19.90;98.00;;;;;;5037462;28;20549;-70
2022/07/19 04:24:40;;;;;;;9.45;2.90;;;19.90;98.20;;;;;;5055227;28;20114;-70
2022/07/19 04:27:06;;;;;;;10.55;2.90;;;19.90;98.50;;;;;;5048677;28;20033;-70
2022/07/19 04:29:32;;;;;;;9.02;3.00;;;19.90;98.30;;;;;;5042369;28;20040;-69
2022/07/19 04:31:57;;;;;;;6.53;2.70;;;19.90;98.40;;;;;;5039023;28;20460;-69
2022/07/19 04:34:23;;;;;;;5.60;2.75;;;19.90;98.30;;;;;;5038001;28;20082;-69
2022/07/19 04:36:49;;;;;;;7.60;3.08;;;19.90;98.60;;;;;;5040693;28;20063;-69
2022/07/19 04:39:14;;;;;;;8.52;3.17;;;19.90;98.80;;;;;;5047621;28;20143;-70
2022/07/19 04:41:40;;;;;;;9.13;2.90;;;19.90;98.80;;;;;;5041782;28;20747;-69
2022/07/19 04:44:06;;;;;;;8.20;3.30;;;19.90;98.80;;;;;;5037178;28;20056;-71
2022/07/19 04:46:32;;;;;;;8.00;2.67;;;20.00;99.00;;;;;;5038531;28;20483;-71
2022/07/19 04:48:57;;;;;;;10.43;2.65;;;20.00;99.10;;;;;;5044578;28;20394;-73
2022/07/19 04:51:23;;;;;;;9.90;3.03;;;20.00;98.90;;;;;;5040263;28;20120;-70
2022/07/19 04:53:48;;;;;;;8.20;3.10;;;20.00;99.10;;;;;;5039123;28;20040;-71
2022/07/19 04:56:14;;;;;;;8.57;3.63;;;20.10;98.80;;;;;;5044857;28;20417;-73
2022/07/19 04:58:40;;;;;;;8.52;2.88;;;20.10;98.50;;;;;;5039794;28;20037;-70
2022/07/19 05:01:06;;;;;;;5.57;2.88;;;20.20;98.20;;;;;;5046616;28;20067;-71
2022/07/19 05:03:31;;;;;;;7.60;2.92;;;20.20;98.10;;;;;;5043843;28;20083;-73
2022/07/19 05:05:57;;;;;;;8.30;2.75;;;20.30;97.70;;;;;;5038183;28;20037;-70
2022/07/19 05:08:22;;;;;;;7.18;2.40;;;20.40;97.40;;;;;;5033587;28;20590;-71
2022/07/19 05:10:48;;;;;;;8.52;2.38;;;20.40;96.70;;;;;;5048289;28;20090;-72
2022/07/19 05:13:14;;;;;;;5.07;2.90;;;20.50;96.60;;;;;;5039441;28;20033;-72
2022/07/19 05:15:39;;;;;;;7.97;2.38;;;20.50;95.80;;;;;;5037608;28;20033;-70
2022/07/19 05:18:05;;;;;;;9.85;2.65;;;20.60;95.80;;;;;;5028860;28;20061;-70
2022/07/19 05:20:31;;;;;;;9.65;2.70;;;20.60;95.60;;;;;;5037549;28;20041;-70
2022/07/19 05:22:56;;;;;;;8.43;2.70;;;20.70;95.30;;;;;;5044524;28;20045;-71
2022/07/19 05:25:22;;;;;;;7.22;2.40;;;20.70;95.40;;;;;;5033411;28;20049;-72
2022/07/19 05:27:48;;;;;;;15.50;3.08;;;20.80;95.50;;;;;;5028858;28;20390;-70
2022/07/19 05:30:14;;;;;;;5.88;2.47;;;20.80;95.80;;;;;;5045210;28;20033;-72
2022/07/19 05:32:40;;;;;;;9.18;2.75;;;20.80;95.60;;;;;;5046798;28;20029;-69
2022/07/19 05:35:06;;;;;;;11.02;2.45;;;20.80;95.30;;;;;;5047750;28;20086;-69
2022/07/19 05:37:31;;;;;;;6.85;2.58;;;20.80;95.50;;;;;;5031980;28;20488;-71
2022/07/19 05:39:57;;;;;;;5.78;2.45;;;20.90;95.40;;;;;;5029011;28;20034;-70
2022/07/19 05:42:23;;;;;;;8.50;2.72;;;20.90;95.60;;;;;;5031882;28;20152;-69
2022/07/19 05:44:48;;;;;;;7.80;2.55;;;21.00;95.50;;;;;;5031666;28;20068;-71
2022/07/19 05:47:15;;;;;;;7.38;2.33;;;21.10;95.60;;;;;;5033169;28;20037;-70
2022/07/19 05:49:41;;;;;;;9.43;2.55;;;21.20;95.30;;;;;;5036068;28;20573;-70
2022/07/19 05:52:07;;;;;;;7.35;2.40;;;21.20;95.20;;;;;;5044558;28;20037;-70
2022/07/19 05:54:32;;;;;;;9.15;2.90;;;21.30;94.80;;;;;;5048394;28;20451;-70
2022/07/19 05:56:58;;;;;;;8.00;2.00;;;21.40;94.70;;;;;;5046268;28;20025;-70
2022/07/19 05:59:24;;;;;;;6.78;2.60;;;21.50;95.00;;;;;;5046989;28;20095;-71
2022/07/19 06:01:49;;;;;;;7.95;2.58;;;21.60;94.80;;;;;;5042227;28;20043;-72
2022/07/19 06:04:15;;;;;;;7.43;2.42;;;21.60;95.40;;;;;;5041489;28;20064;-70
2022/07/19 06:06:41;;;;;;;7.97;2.78;;;21.70;95.40;;;;;;5034152;28;20028;-70
2022/07/19 06:09:11;;;;;;;8.52;2.80;;;21.70;95.50;;;;;;5037125;28;20033;-70
2022/07/19 06:11:39;;;;;;;6.35;2.38;;;21.80;95.60;;;;;;5040660;28;20025;-71
2022/07/19 06:14:06;;;;;;;6.88;2.60;;;21.80;94.70;;;;;;5033624;28;20029;-69
2022/07/19 06:16:32;;;;;;;6.40;2.28;;;21.90;94.60;;;;;;5042385;28;20124;-72
2022/07/19 06:18:58;;;;;;;7.68;2.63;;;22.00;94.50;;;;;;5041104;28;20167;-72
2022/07/19 06:21:24;;;;;;;7.20;2.65;;;22.10;95.10;;;;;;5043814;28;20097;-71
2022/07/19 06:23:50;;;;;;;7.90;2.85;;;22.20;94.90;;;;;;5042421;28;20037;-70
2022/07/19 06:26:16;;;;;;;11.48;3.20;;;22.20;94.40;;;;;;5042641;28;20056;-71
2022/07/19 06:28:42;;;;;;;6.93;2.63;;;22.30;94.30;;;;;;5040494;28;20052;-70
2022/07/19 06:31:09;;;;;;;7.97;2.47;;;22.40;94.50;;;;;;5043065;28;20026;-70
2022/07/19 06:33:34;;;;;;;7.78;2.42;;;22.60;94.40;;;;;;5037704;28;20366;-71
2022/07/19 06:36:00;;;;;;;8.52;2.60;;;22.70;93.00;;;;;;5039858;28;20483;-70
2022/07/19 06:38:26;;;;;;;7.47;2.90;;;22.70;93.80;;;;;;5045052;28;20500;-71
2022/07/19 06:40:52;;;;;;;8.13;2.53;;;22.90;92.90;;;;;;5049061;28;20054;-71
2022/07/19 06:43:17;;;;;;;6.65;2.28;;;23.00;92.60;;;;;;5045299;28;20037;-71
2022/07/19 06:45:43;;;;;;;9.40;2.70;;;23.10;92.50;;;;;;5024712;28;20036;-71
2022/07/19 06:48:09;;;;;;;6.88;2.80;;;23.20;92.20;;;;;;5041813;28;20033;-71
2022/07/19 06:50:34;;;;;;;7.32;2.75;;;23.40;91.10;;;;;;5044016;28;20402;-70
2022/07/19 06:53:00;;;;;;;6.35;2.40;;;23.40;90.90;;;;;;5046715;28;20037;-70
2022/07/19 06:55:26;;;;;;;8.13;2.50;;;23.60;90.50;;;;;;5045201;28;20037;-71
2022/07/19 06:57:52;;;;;;;11.05;2.92;;;23.70;88.80;;;;;;5034264;28;20033;-71
2022/07/19 07:00:17;;;;;;;6.55;2.35;;;23.80;88.30;;;;;;5044946;28;20044;-70
2022/07/19 07:02:43;;;;;;;6.57;2.42;;;23.90;85.50;;;;;;5051698;28;20039;-71
2022/07/19 07:05:11;;;;;;;7.05;2.88;;;24.10;82.10;;;;;;5043954;28;20044;-73
2022/07/19 07:07:36;;;;;;;7.45;2.65;;;24.20;78.50;;;;;;5047777;28;20037;-72
2022/07/19 07:10:06;;;;;;;11.98;2.47;;;24.40;76.40;;;;;;5032383;28;20260;-73
2022/07/19 07:12:32;;;;;;;7.50;2.10;;;24.50;75.30;;;;;;5033557;28;20045;-71
2022/07/19 07:14:57;;;;;;;7.45;2.30;;;24.70;72.60;;;;;;5043744;28;20782;-71
2022/07/19 07:17:24;;;;;;;6.53;2.17;;;24.80;70.30;;;;;;5043198;28;20036;-70
2022/07/19 07:19:49;;;;;;;7.55;2.25;;;25.00;69.60;;;;;;5037462;28;20433;-70
2022/07/19 07:22:15;;;;;;;7.43;2.10;;;25.20;66.50;;;;;;5054073;28;20047;-73
2022/07/19 07:24:41;;;;;;;8.27;2.10;;;25.40;66.00;;;;;;5037003;28;20538;-69
2022/07/19 07:27:07;;;;;;;6.60;2.17;;;25.50;63.80;;;;;;5037093;28;20032;-71
2022/07/19 07:29:33;;;;;;;7.63;2.10;;;25.70;62.50;;;;;;5038667;28;20041;-74
2022/07/19 07:31:58;;;;;;;4.53;1.85;;;25.80;59.90;;;;;;5065567;28;20465;-72
2022/07/19 07:34:25;;;;;;;7.32;1.98;;;26.00;59.50;;;;;;5046495;28;20448;-71
2022/07/19 07:36:50;;;;;;;5.95;1.73;;;26.20;57.20;;;;;;5036026;28;20033;-71
2022/07/19 07:39:16;;;;;;;6.85;2.10;;;26.40;56.40;;;;;;5039510;28;20055;-72
2022/07/19 07:41:42;;;;;;;6.80;2.00;;;26.50;55.30;;;;;;5049793;28;20032;-71
2022/07/19 07:44:07;;;;;;;7.35;2.03;;;26.70;54.40;;;;;;5028696;28;20045;-72
2022/07/19 07:46:33;;;;;;;4.90;1.70;;;26.80;54.60;;;;;;5030858;28;20029;-73
2022/07/19 07:48:59;;;;;;;7.82;2.20;;;26.90;54.30;;;;;;5035416;28;20115;-72
2022/07/19 07:51:25;;;;;;;8.35;1.92;;;27.00;52.60;;;;;;5049879;28;20772;-72
2022/07/19 07:53:51;;;;;;;7.63;2.03;;;27.10;52.80;;;;;;5047978;28;20112;-74
2022/07/19 07:56:17;;;;;;;4.78;2.13;;;27.30;53.30;;;;;;5042318;28;20112;-73
2022/07/19 07:58:43;;;;;;;8.77;2.10;;;27.50;52.40;;;;;;5029954;28;20033;-71
2022/07/19 08:01:08;;;;;;;4.75;2.00;;;27.70;52.70;;;;;;5043428;28;20521;-73
2022/07/19 08:03:34;;;;;;;7.32;2.28;;;27.90;52.20;;;;;;5040348;28;20040;-70
2022/07/19 08:05:59;;;;;;;8.15;2.35;;;28.10;51.10;;;;;;5041083;28;20482;-71
2022/07/19 08:08:26;;;;;;;6.75;2.00;;;28.30;50.20;;;;;;5069939;28;20028;-72
2022/07/19 08:10:56;;;;;;;10.88;2.45;;;28.50;48.70;;;;;;5058164;28;20630;-71
2022/07/19 08:13:23;;;;;;;4.10;2.03;;;28.70;48.40;;;;;;5048671;28;20040;-71
2022/07/19 08:15:49;;;;;;;8.75;2.30;;;28.90;47.70;;;;;;5049775;28;20115;-74
2022/07/19 08:18:16;;;;;;;8.45;2.15;;;29.00;47.20;;;;;;5044695;28;20061;-71
2022/07/19 08:20:42;;;;;;;7.53;2.10;;;29.20;46.80;;;;;;5049863;28;20025;-72
2022/07/19 08:23:08;;;;;;;5.32;2.13;;;29.30;46.60;;;;;;5038245;28;20417;-72
2022/07/19 08:25:34;;;;;;;7.00;1.85;;;29.40;46.00;;;;;;5041436;28;20053;-72
2022/07/19 08:28:00;;;;;;;4.65;2.10;;;29.50;45.90;;;;;;5034535;28;20034;-72
2022/07/19 08:30:26;;;;;;;7.20;2.17;;;29.70;45.40;;;;;;5036858;28;20037;-71
2022/07/19 08:32:52;;;;;;;7.38;2.10;;;29.80;44.70;;;;;;5036549;28;20045;-71
2022/07/19 08:35:18;;;;;;;9.93;2.80;;;29.90;44.20;;;;;;5039628;28;20033;-70
2022/07/19 08:37:43;;;;;;;9.25;2.55;;;30.00;44.90;;;;;;5032073;28;20037;-73
2022/07/19 08:40:10;;;;;;;7.28;2.28;;;30.10;44.70;;;;;;5037183;28;20087;-72
2022/07/19 08:42:36;;;;;;;8.73;2.58;;;30.20;44.80;;;;;;5037889;28;20037;-74
2022/07/19 08:45:05;;;;;;;7.80;2.60;;;30.40;44.30;;;;;;5043807;28;20040;-72
2022/07/19 08:47:31;;;;;;;6.75;2.33;;;30.50;43.60;;;;;;5037464;28;20040;-76
2022/07/19 08:50:03;;;;;;;9.07;2.70;;;30.70;43.20;;;;;;5047080;28;20029;-75
2022/07/19 08:52:29;;;;;;;4.95;2.30;;;30.90;43.20;;;;;;5048385;28;20060;-74
2022/07/19 08:54:56;;;;;;;5.82;2.47;;;31.00;42.80;;;;;;5039231;28;20470;-74
2022/07/19 09:00:07;;;;;;;7.70;2.40;;;31.30;42.80;;;;;;5041335;28;20051;-72
2022/07/19 09:02:33;;;;;;;7.25;2.53;;;31.40;42.60;;;;;;5047142;28;20143;-71
2022/07/19 09:05:09;;;;;;;8.40;2.70;;;31.50;41.40;;;;;;5040552;28;20136;-72
2022/07/19 09:07:38;;;;;;;9.32;2.60;;;31.60;41.90;;;;;;5042538;28;20128;-71
2022/07/19 09:10:15;;;;;;;7.00;2.92;;;31.90;41.10;;;;;;5041142;28;20090;-71
2022/07/19 09:12:59;;;;;;;8.23;2.75;;;32.30;38.90;;;;;;5044329;28;20037;-70
2022/07/19 09:15:43;;;;;;;8.05;3.00;;;32.70;37.10;;;;;;5040344;28;20116;-71
2022/07/19 09:18:14;;;;;;;7.80;2.88;;;32.90;36.40;;;;;;5028659;28;20037;-69
2022/07/19 09:20:40;;;;;;;6.18;2.92;;;33.10;35.60;;;;;;5027674;28;20120;-69
2022/07/19 09:23:06;;;;;;;8.82;2.90;;;33.30;35.50;;;;;;5033341;28;20494;-70
2022/07/19 09:25:53;;;;;;;8.88;3.35;;;33.40;35.50;;;;;;5046719;28;20053;-72
2022/07/19 09:28:21;;;;;;;6.50;2.92;;;33.60;35.40;;;;;;5041562;28;20629;-72
2022/07/19 09:30:49;;;;;;;7.70;2.80;;;33.80;35.20;;;;;;5040999;28;20150;-71
2022/07/19 09:33:18;;;;;;;8.07;3.25;;;33.70;34.60;;;;;;5038322;28;20128;-71
2022/07/19 09:35:47;;;;;;;;;;;33.80;35.20;;;;;;5032213;28;20425;-72
2022/07/19 09:38:16;;;;;;;;;;;33.90;33.50;;;;;;5028355;28;19939;-73
2022/07/19 09:40:42;;;;;;;7.38;3.10;;;34.10;33.60;;;;;;5043788;28;19935;-71
2022/07/19 09:43:07;;;;;;;8.13;3.10;;;34.30;33.70;;;;;;5042545;28;20445;-70
2022/07/19 09:45:33;;;;;;;9.00;2.90;;;34.40;33.40;;;;;;5036883;28;20037;-69
2022/07/19 09:48:00;;;;;;;6.72;3.00;;;34.40;33.20;;;;;;5030889;28;20109;-71
2022/07/19 09:50:26;;;;;;;8.15;3.13;;;34.50;33.40;;;;;;5039030;28;20471;-71
2022/07/19 09:52:52;;;;;;;7.43;2.85;;;34.50;35.10;;;;;;5039317;28;20029;-73
2022/07/19 09:55:19;;;;;;;7.75;3.00;;;34.60;35.90;;;;;;5030765;28;20029;-74
2022/07/19 09:57:47;;;;;;;11.07;3.10;;;34.60;34.80;;;;;;5034712;28;20752;-75
2022/07/19 10:00:14;;;;;;;7.43;2.67;;;34.60;35.20;;;;;;5046059;28;20087;-74
2022/07/19 10:02:42;;;;;;;6.55;2.72;;;34.50;35.60;;;;;;5042174;28;20037;-74
2022/07/19 10:05:10;;;;;;;6.85;2.83;;;34.50;35.00;;;;;;5026510;28;20041;-77
2022/07/19 10:07:37;;;;;;;11.52;3.05;;;34.40;35.40;;;;;;5027003;28;20478;-75
2022/07/19 10:10:07;;;;;;;6.57;2.65;;;34.30;35.60;;;;;;5027641;28;20678;-74
2022/07/19 10:12:33;;;;;;;8.13;2.70;;;34.20;35.70;;;;;;5027715;28;20116;-73
2022/07/19 10:14:59;;;;;;;6.57;2.60;;;34.10;35.80;;;;;;5045821;28;20111;-72
2022/07/19 10:17:38;;;;;;;7.13;2.45;;;34.00;36.80;;;;;;5047326;28;20036;-73
2022/07/19 10:20:06;;;;;;;7.13;2.95;;;33.80;36.10;;;;;;5040239;28;20062;-73
2022/07/19 10:22:33;;;;;;;6.22;2.78;;;33.60;36.10;;;;;;5027698;28;20037;-73
2022/07/19 10:25:10;;;;;;;7.50;2.70;;;33.40;36.60;;;;;;5029613;28;20056;-71
2022/07/19 10:27:42;;;;;;;6.75;2.80;;;33.40;36.80;;;;;;5047040;28;20490;-71
2022/07/19 10:30:11;;;;;;;7.00;2.65;;;33.40;36.30;;;;;;5047696;28;20029;-73
2022/07/19 10:32:38;;;;;;;7.75;2.75;;;33.50;37.50;;;;;;5046206;28;20033;-75
2022/07/19 10:35:22;;;;;;;5.90;2.70;;;33.70;35.70;;;;;;5046169;28;20044;-73
2022/07/19 10:38:14;;;;;;;7.93;3.13;;;33.60;35.30;;;;;;5035702;28;20056;-74
2022/07/19 10:40:48;;;;;;;6.60;2.95;;;33.60;36.60;;;;;;5031318;28;20045;-76
2022/07/19 10:43:15;;;;;;;9.15;3.13;;;33.70;36.60;;;;;;5030899;28;20410;-75
2022/07/19 10:45:56;;;;;;;8.73;2.70;;;33.60;35.40;;;;;;5031417;28;20030;-75
2022/07/19 10:48:39;;;;;;;9.65;3.03;;;33.50;35.60;;;;;;5031617;28;20025;-73
2022/07/19 10:51:06;;;;;;;10.05;2.97;;;33.50;35.40;;;;;;5042713;28;20055;-75
2022/07/19 10:53:56;;;;;;;9.70;3.05;;;33.50;35.90;;;;;;5037047;28;20029;-75
2022/07/19 10:56:28;;;;;;;7.90;2.78;;;33.40;34.80;;;;;;5055662;28;20051;-80
2022/07/19 10:59:09;;;;;;;6.40;2.92;;;33.50;36.30;;;;;;5042769;28;20033;-76
2022/07/19 11:01:37;;;;;;;9.00;3.20;;;33.50;35.60;;;;;;5029790;28;20568;-74
2022/07/19 11:04:24;;;;;;;8.95;3.17;;;33.60;35.50;;;;;;5042525;28;20108;-73
2022/07/19 11:06:51;;;;;;;7.80;3.00;;;33.70;34.50;;;;;;5046427;28;20034;-73
2022/07/19 11:09:17;;;;;;;5.88;2.85;;;33.90;35.50;;;;;;5049378;28;20041;-73
2022/07/19 11:11:43;;;;;;;10.13;3.47;;;34.10;35.40;;;;;;5038444;28;20044;-73
2022/07/19 11:14:08;;;;;;;6.85;3.10;;;34.30;34.60;;;;;;5029622;28;20022;-75
2022/07/19 11:16:34;;;;;;;9.75;3.35;;;34.50;35.00;;;;;;5032109;28;20044;-73
2022/07/19 11:19:08;;;;;;;8.25;3.17;;;34.70;34.70;;;;;;5037545;28;20033;-73
2022/07/19 11:21:36;;;;;;;8.25;2.75;;;34.70;34.60;;;;;;5050611;28;20606;-72
2022/07/19 11:24:02;;;;;;;;;;;34.90;35.00;;;;;;5051104;28;20039;-73
2022/07/19 11:26:38;;;;;;;8.32;3.20;;;35.10;34.20;;;;;;5051071;28;19912;-75
2022/07/19 11:29:04;;;;;;;9.63;3.30;;;35.20;34.40;;;;;;5037975;28;20731;-73
2022/07/19 11:31:30;;;;;;;8.70;3.40;;;35.30;34.20;;;;;;5051026;28;20074;-77
2022/07/19 11:33:56;;;;;;;7.97;3.38;;;35.40;32.50;;;;;;5033960;28;20084;-78
2022/07/19 11:36:22;;;;;;;12.15;3.10;;;35.30;33.20;;;;;;5047925;28;20118;-73
2022/07/19 11:38:54;;;;;;;9.10;3.20;;;35.30;34.00;;;;;;5042623;28;20106;-73
2022/07/19 11:41:20;;;;;;;8.93;3.45;;;35.50;33.40;;;;;;5047488;28;20086;-72
2022/07/19 11:44:07;;;;;;;8.85;3.42;;;36.30;32.60;;;;;;5034650;28;20041;-71
2022/07/19 11:46:40;;;;;;;7.30;3.10;;;36.80;30.80;;;;;;5036319;28;20490;-71
2022/07/19 11:49:07;;;;;;;5.70;3.10;;;37.10;31.10;;;;;;5049469;28;20051;-72
2022/07/19 11:51:34;;;;;;;9.10;3.35;;;38.10;31.00;;;;;;5039358;28;20053;-71
2022/07/19 11:54:02;;;;;;;9.68;3.58;;;38.20;30.60;;;;;;5037758;28;20789;-72
2022/07/19 11:56:30;;;;;;;12.23;3.22;;;38.40;29.80;;;;;;5038853;28;20049;-74
2022/07/19 11:58:58;;;;;;;8.23;3.10;;;37.90;30.40;;;;;;5044975;28;20041;-74
2022/07/19 12:01:27;;;;;;;9.93;3.55;;;37.80;29.90;;;;;;5042676;28;20119;-70
2022/07/19 12:04:17;;;;;;;13.95;3.80;;;37.90;30.00;;;;;;5035286;28;20038;-71
2022/07/19 12:06:45;;;;;;;7.03;3.58;;;37.60;30.70;;;;;;5038412;28;22003;-73
2022/07/19 12:09:20;;;;;;;10.52;3.10;;;37.40;30.40;;;;;;5044049;28;20033;-70
2022/07/19 12:11:48;;;;;;;9.32;3.28;;;37.30;30.30;;;;;;5027730;28;20037;-75
2022/07/19 12:14:21;;;;;;;8.40;3.20;;;36.70;30.80;;;;;;5027940;28;20124;-69
2022/07/19 12:16:49;;;;;;;8.65;3.28;;;36.20;31.80;;;;;;5029871;28;20115;-71
2022/07/19 12:19:19;;;;;;;9.65;3.45;;;35.90;31.70;;;;;;5030445;28;20065;-71
2022/07/19 12:21:46;;;;;;;9.25;3.60;;;35.70;31.70;;;;;;5048961;28;20041;-70
2022/07/19 12:24:23;;;;;;;8.50;3.85;;;35.50;32.50;;;;;;5037736;28;20600;-72
2022/07/19 12:26:54;;;;;;;9.10;3.60;;;35.50;31.20;;;;;;5029657;28;20037;-71
2022/07/19 12:29:26;;;;;;;8.38;3.40;;;35.50;31.30;;;;;;5032923;28;20025;-72
2022/07/19 12:31:58;;;;;;;11.23;3.53;;;35.50;31.70;;;;;;5049280;28;20025;-71
2022/07/19 12:34:25;;;;;;;9.57;3.13;;;35.60;32.10;;;;;;5042766;28;20033;-72
2022/07/19 12:36:51;;;;;;;9.35;3.75;;;35.70;31.30;;;;;;5039273;28;20026;-71
2022/07/19 12:39:24;;;;;;;8.57;3.58;;;35.80;31.40;;;;;;5032613;28;20030;-71
2022/07/19 12:42:05;;;;;;;7.18;3.42;;;35.90;30.80;;;;;;5046230;28;20033;-71
2022/07/19 12:44:33;;;;;;;9.18;3.55;;;35.90;31.10;;;;;;5044216;28;20025;-73
2022/07/19 12:46:59;;;;;;;10.15;3.40;;;36.00;31.00;;;;;;5029620;28;20025;-72
2022/07/19 12:49:26;;;;;;;9.98;3.53;;;36.10;30.60;;;;;;5029829;28;20037;-71
2022/07/19 12:51:52;;;;;;;8.55;3.30;;;36.20;30.60;;;;;;5029800;28;20064;-73